September 29, 2016
Temp
 
80.8 °F
 
Dew Pt.
 
55.5 °F
 
Humidity
 
42%
 
Pressure
 
1014.8 hPa 
  rising slowly
Wind
 
0.0 mph 
    SSE
Rain
 
0.00 in 
  0.00 in/hr
UV index
 
---  
 
Solar rad.
 
100 W/m²
 
Tonight

Tonight: Mostly clear, with a low around 65. West southwest wind 5 to 10 mph becoming light south southwest  in the evening.
Mostly Clear
Friday

Friday: Sunny, with a high near 90. Light south southeast wind becoming southwest 5 to 10 mph in the afternoon.
Sunny
Lo 65 °F Hi 90 °F
Earthquakes of magnitude 2.5 or greater within 150 miles
Near CityMagnitudeDistance to
Epicenter
Local TimeLink
Bombay Beach, CA 3.2 141 mi (227 km) 2016/09/29 11:07:59 map
Little Lake, CA 3.0 121 mi (195 km) 2016/09/29 05:59:29 map
Bombay Beach, CA 2.6 142 mi (228 km) 2016/09/28 00:24:23 map
Bombay Beach, CA 3.3 142 mi (228 km) 2016/09/27 19:33:50 map
Bombay Beach, CA 2.7 142 mi (228 km) 2016/09/27 18:27:25 map
Bombay Beach, CA 2.6 142 mi (228 km) 2016/09/27 18:14:01 map
Bombay Beach, CA 3.5 142 mi (229 km) 2016/09/27 18:13:03 map
Bombay Beach, CA 2.9 142 mi (228 km) 2016/09/27 18:11:24 map
Bombay Beach, CA 3.6 142 mi (228 km) 2016/09/27 18:05:51 map
Bombay Beach, CA 2.7 142 mi (228 km) 2016/09/27 17:28:17 map
Bombay Beach, CA 2.6 142 mi (229 km) 2016/09/27 07:01:38 map
Bombay Beach, CA 2.7 142 mi (228 km) 2016/09/27 02:46:31 map
Bombay Beach, CA 2.5 142 mi (228 km) 2016/09/27 00:49:40 map
Bombay Beach, CA 2.5 142 mi (229 km) 2016/09/26 23:42:21 map
Bombay Beach, CA 2.5 141 mi (227 km) 2016/09/26 23:40:02 map
Bombay Beach, CA 3.2 142 mi (228 km) 2016/09/26 22:52:50 map
Bombay Beach, CA 2.5 142 mi (229 km) 2016/09/26 22:49:13 map
Bombay Beach, CA 3.0 142 mi (228 km) 2016/09/26 21:43:51 map
Bombay Beach, CA 2.6 142 mi (228 km) 2016/09/26 21:43:48 map
Bombay Beach, CA 2.5 142 mi (228 km) 2016/09/26 21:39:22 map
Bombay Beach, CA 3.5 142 mi (229 km) 2016/09/26 20:46:30 map
Bombay Beach, CA 3.4 142 mi (229 km) 2016/09/26 20:39:40 map
Bombay Beach, CA 4.1 142 mi (229 km) 2016/09/26 20:36:15 map
Bombay Beach, CA 3.0 142 mi (228 km) 2016/09/26 20:29:32 map
Bombay Beach, CA 2.8 142 mi (228 km) 2016/09/26 20:29:10 map
Bombay Beach, CA 2.6 141 mi (227 km) 2016/09/26 20:28:38 map
Bombay Beach, CA 2.5 141 mi (227 km) 2016/09/26 20:28:00 map
Bombay Beach, CA 3.3 142 mi (228 km) 2016/09/26 20:25:05 map
Bombay Beach, CA 4.3 142 mi (228 km) 2016/09/26 20:23:58 map
Bombay Beach, CA 2.5 142 mi (228 km) 2016/09/26 20:14:33 map
Bombay Beach, CA 3.3 142 mi (228 km) 2016/09/26 20:06:14 map
Bombay Beach, CA 2.5 142 mi (228 km) 2016/09/26 18:56:22 map
Bombay Beach, CA 2.6 142 mi (229 km) 2016/09/26 17:09:04 map
Bombay Beach, CA 3.0 142 mi (229 km) 2016/09/26 16:34:01 map
Bombay Beach, CA 3.2 142 mi (229 km) 2016/09/26 16:33:37 map
Bombay Beach, CA 3.2 142 mi (228 km) 2016/09/26 08:48:40 map
Bombay Beach, CA 2.5 142 mi (228 km) 2016/09/26 08:48:39 map
Bombay Beach, CA 3.1 141 mi (227 km) 2016/09/26 08:47:28 map
Bombay Beach, CA 2.5 142 mi (228 km) 2016/09/26 08:30:15 map
Bombay Beach, CA 2.5 142 mi (228 km) 2016/09/26 08:04:58 map
Bombay Beach, CA 2.8 142 mi (228 km) 2016/09/26 08:02:10 map
Bombay Beach, CA 2.5 142 mi (228 km) 2016/09/26 08:01:55 map
Bombay Beach, CA 2.5 142 mi (229 km) 2016/09/26 07:46:35 map
Bombay Beach, CA 2.7 142 mi (228 km) 2016/09/26 07:45:30 map
Bombay Beach, CA 2.6 141 mi (227 km) 2016/09/26 07:35:45 map
Bombay Beach, CA 2.7 142 mi (228 km) 2016/09/26 07:33:45 map
Bombay Beach, CA 4.3 142 mi (228 km) 2016/09/26 07:31:08 map
Bombay Beach, CA 3.3 142 mi (228 km) 2016/09/26 06:14:19 map
Bombay Beach, CA 2.8 142 mi (228 km) 2016/09/26 04:39:55 map
Bombay Beach, CA 2.7 142 mi (228 km) 2016/09/26 04:38:27 map
Niland, CA 2.6 147 mi (237 km) 2016/09/24 20:47:43 map
Little Lake, CA 3.4 121 mi (195 km) 2016/09/24 18:41:22 map
Borrego Springs, CA 2.5 106 mi (171 km) 2016/09/24 13:34:05 map
Desert Hot Springs, CA 3.4 90 mi (145 km) 2016/09/24 02:11:14 map

Click on location for more details from the USGS.